sensor_id;sensor_type;location;lat;lon;timestamp;P1;durP1;ratioP1;P2;durP2;ratioP2
66143;SDS011;52947;50.842;6.084;2023-04-15T00:00:26;10.38;;;2.00;;
66143;SDS011;52947;50.842;6.084;2023-04-15T00:02:55;9.60;;;1.85;;
66143;SDS011;52947;50.842;6.084;2023-04-15T00:05:23;5.80;;;1.90;;
66143;SDS011;52947;50.842;6.084;2023-04-15T00:07:51;7.63;;;2.30;;
66143;SDS011;52947;50.842;6.084;2023-04-15T00:10:21;7.47;;;1.95;;
66143;SDS011;52947;50.842;6.084;2023-04-15T00:12:49;7.50;;;1.63;;
66143;SDS011;52947;50.842;6.084;2023-04-15T00:15:18;8.70;;;2.20;;
66143;SDS011;52947;50.842;6.084;2023-04-15T00:17:49;3.88;;;1.73;;
66143;SDS011;52947;50.842;6.084;2023-04-15T00:20:18;5.18;;;2.10;;
66143;SDS011;52947;50.842;6.084;2023-04-15T00:22:46;4.78;;;1.83;;
66143;SDS011;52947;50.842;6.084;2023-04-15T00:25:14;7.85;;;2.08;;
66143;SDS011;52947;50.842;6.084;2023-04-15T00:27:44;4.32;;;1.90;;
66143;SDS011;52947;50.842;6.084;2023-04-15T00:30:13;5.05;;;1.90;;
66143;SDS011;52947;50.842;6.084;2023-04-15T00:32:42;4.70;;;1.83;;
66143;SDS011;52947;50.842;6.084;2023-04-15T00:35:10;6.50;;;2.22;;
66143;SDS011;52947;50.842;6.084;2023-04-15T00:37:39;5.57;;;1.75;;
66143;SDS011;52947;50.842;6.084;2023-04-15T00:40:11;4.18;;;1.67;;
66143;SDS011;52947;50.842;6.084;2023-04-15T00:42:40;4.63;;;1.80;;
66143;SDS011;52947;50.842;6.084;2023-04-15T00:45:09;3.05;;;1.77;;
66143;SDS011;52947;50.842;6.084;2023-04-15T00:47:38;6.03;;;1.88;;
66143;SDS011;52947;50.842;6.084;2023-04-15T00:50:08;4.07;;;1.73;;
66143;SDS011;52947;50.842;6.084;2023-04-15T00:52:38;4.18;;;1.50;;
66143;SDS011;52947;50.842;6.084;2023-04-15T00:55:07;4.90;;;1.80;;
66143;SDS011;52947;50.842;6.084;2023-04-15T01:00:04;5.25;;;2.30;;
66143;SDS011;52947;50.842;6.084;2023-04-15T01:02:36;7.53;;;2.15;;
66143;SDS011;52947;50.842;6.084;2023-04-15T01:05:05;3.63;;;1.70;;
66143;SDS011;52947;50.842;6.084;2023-04-15T01:07:34;5.63;;;1.67;;
66143;SDS011;52947;50.842;6.084;2023-04-15T01:10:02;7.90;;;1.77;;
66143;SDS011;52947;50.842;6.084;2023-04-15T01:12:30;5.85;;;1.67;;
66143;SDS011;52947;50.842;6.084;2023-04-15T01:14:59;6.55;;;1.83;;
66143;SDS011;52947;50.842;6.084;2023-04-15T01:17:29;4.70;;;1.98;;
66143;SDS011;52947;50.842;6.084;2023-04-15T01:19:58;6.95;;;2.00;;
66143;SDS011;52947;50.842;6.084;2023-04-15T01:22:28;6.95;;;2.00;;
66143;SDS011;52947;50.842;6.084;2023-04-15T01:24:59;4.13;;;1.73;;
66143;SDS011;52947;50.842;6.084;2023-04-15T01:27:35;5.72;;;1.90;;
66143;SDS011;52947;50.842;6.084;2023-04-15T01:30:07;7.30;;;1.83;;
66143;SDS011;52947;50.842;6.084;2023-04-15T01:32:37;5.82;;;1.98;;
66143;SDS011;52947;50.842;6.084;2023-04-15T01:35:05;3.03;;;1.65;;
66143;SDS011;52947;50.842;6.084;2023-04-15T01:37:34;5.10;;;1.95;;
66143;SDS011;52947;50.842;6.084;2023-04-15T01:40:03;4.65;;;2.85;;
66143;SDS011;52947;50.842;6.084;2023-04-15T01:42:36;3.70;;;1.55;;
66143;SDS011;52947;50.842;6.084;2023-04-15T01:45:04;6.18;;;1.70;;
66143;SDS011;52947;50.842;6.084;2023-04-15T01:47:36;3.95;;;1.60;;
66143;SDS011;52947;50.842;6.084;2023-04-15T01:50:05;5.43;;;1.95;;
66143;SDS011;52947;50.842;6.084;2023-04-15T01:52:34;5.75;;;1.90;;
66143;SDS011;52947;50.842;6.084;2023-04-15T01:55:02;4.10;;;1.85;;
66143;SDS011;52947;50.842;6.084;2023-04-15T01:57:31;4.35;;;1.77;;
66143;SDS011;52947;50.842;6.084;2023-04-15T02:00:01;5.28;;;1.90;;
66143;SDS011;52947;50.842;6.084;2023-04-15T02:02:38;6.65;;;1.80;;
66143;SDS011;52947;50.842;6.084;2023-04-15T02:05:07;4.57;;;1.88;;
66143;SDS011;52947;50.842;6.084;2023-04-15T02:07:36;4.82;;;2.08;;
66143;SDS011;52947;50.842;6.084;2023-04-15T02:10:04;3.67;;;2.03;;
66143;SDS011;52947;50.842;6.084;2023-04-15T02:12:34;6.20;;;2.35;;
66143;SDS011;52947;50.842;6.084;2023-04-15T02:15:04;4.88;;;2.25;;
66143;SDS011;52947;50.842;6.084;2023-04-15T02:17:33;4.32;;;2.15;;
66143;SDS011;52947;50.842;6.084;2023-04-15T02:20:03;6.82;;;2.15;;
66143;SDS011;52947;50.842;6.084;2023-04-15T02:22:32;9.88;;;2.15;;
66143;SDS011;52947;50.842;6.084;2023-04-15T02:25:00;4.78;;;2.20;;
66143;SDS011;52947;50.842;6.084;2023-04-15T02:27:30;5.50;;;2.20;;
66143;SDS011;52947;50.842;6.084;2023-04-15T02:29:59;6.38;;;2.13;;
66143;SDS011;52947;50.842;6.084;2023-04-15T02:32:28;5.50;;;2.00;;
66143;SDS011;52947;50.842;6.084;2023-04-15T02:35:00;8.18;;;2.08;;
66143;SDS011;52947;50.842;6.084;2023-04-15T02:37:31;5.80;;;2.17;;
66143;SDS011;52947;50.842;6.084;2023-04-15T02:40:03;6.07;;;2.33;;
66143;SDS011;52947;50.842;6.084;2023-04-15T02:42:32;7.28;;;2.10;;
66143;SDS011;52947;50.842;6.084;2023-04-15T02:45:00;9.73;;;2.40;;
66143;SDS011;52947;50.842;6.084;2023-04-15T02:47:33;4.22;;;2.05;;
66143;SDS011;52947;50.842;6.084;2023-04-15T02:50:04;9.50;;;2.17;;
66143;SDS011;52947;50.842;6.084;2023-04-15T02:52:33;5.45;;;2.63;;
66143;SDS011;52947;50.842;6.084;2023-04-15T02:55:01;2.92;;;1.88;;
66143;SDS011;52947;50.842;6.084;2023-04-15T02:57:30;4.53;;;1.92;;
66143;SDS011;52947;50.842;6.084;2023-04-15T03:00:04;5.88;;;2.22;;
66143;SDS011;52947;50.842;6.084;2023-04-15T03:02:38;6.93;;;2.38;;
66143;SDS011;52947;50.842;6.084;2023-04-15T03:05:10;3.88;;;2.13;;
66143;SDS011;52947;50.842;6.084;2023-04-15T03:07:45;7.65;;;2.60;;
66143;SDS011;52947;50.842;6.084;2023-04-15T03:10:14;3.80;;;2.00;;
66143;SDS011;52947;50.842;6.084;2023-04-15T03:12:42;6.55;;;2.35;;
66143;SDS011;52947;50.842;6.084;2023-04-15T03:15:15;7.25;;;2.70;;
66143;SDS011;52947;50.842;6.084;2023-04-15T03:17:49;3.75;;;1.92;;
66143;SDS011;52947;50.842;6.084;2023-04-15T03:20:17;5.65;;;1.98;;
66143;SDS011;52947;50.842;6.084;2023-04-15T03:22:47;4.97;;;1.90;;
66143;SDS011;52947;50.842;6.084;2023-04-15T03:25:17;6.85;;;2.55;;
66143;SDS011;52947;50.842;6.084;2023-04-15T03:27:45;6.45;;;2.30;;
66143;SDS011;52947;50.842;6.084;2023-04-15T03:30:16;6.72;;;2.40;;
66143;SDS011;52947;50.842;6.084;2023-04-15T03:32:44;7.63;;;2.67;;
66143;SDS011;52947;50.842;6.084;2023-04-15T03:35:14;4.68;;;1.95;;
66143;SDS011;52947;50.842;6.084;2023-04-15T03:37:43;6.28;;;2.40;;
66143;SDS011;52947;50.842;6.084;2023-04-15T03:40:11;5.88;;;2.55;;
66143;SDS011;52947;50.842;6.084;2023-04-15T03:42:40;4.00;;;2.42;;
66143;SDS011;52947;50.842;6.084;2023-04-15T03:45:08;6.15;;;2.40;;
66143;SDS011;52947;50.842;6.084;2023-04-15T03:47:37;5.15;;;2.05;;
66143;SDS011;52947;50.842;6.084;2023-04-15T03:50:05;5.90;;;2.40;;
66143;SDS011;52947;50.842;6.084;2023-04-15T03:57:32;6.80;;;2.50;;
66143;SDS011;52947;50.842;6.084;2023-04-15T04:00:03;8.30;;;2.42;;
66143;SDS011;52947;50.842;6.084;2023-04-15T04:02:37;5.25;;;2.08;;
66143;SDS011;52947;50.842;6.084;2023-04-15T04:05:05;5.53;;;2.00;;
66143;SDS011;52947;50.842;6.084;2023-04-15T04:07:35;6.97;;;2.40;;
66143;SDS011;52947;50.842;6.084;2023-04-15T04:10:04;6.57;;;2.20;;
66143;SDS011;52947;50.842;6.084;2023-04-15T04:15:01;4.97;;;2.20;;
66143;SDS011;52947;50.842;6.084;2023-04-15T04:17:29;5.97;;;2.78;;
66143;SDS011;52947;50.842;6.084;2023-04-15T04:19:57;6.97;;;2.70;;
66143;SDS011;52947;50.842;6.084;2023-04-15T04:22:25;5.05;;;2.72;;
66143;SDS011;52947;50.842;6.084;2023-04-15T04:24:55;5.03;;;2.30;;
66143;SDS011;52947;50.842;6.084;2023-04-15T04:27:24;7.47;;;2.60;;
66143;SDS011;52947;50.842;6.084;2023-04-15T04:29:52;7.55;;;2.28;;
66143;SDS011;52947;50.842;6.084;2023-04-15T04:32:20;3.85;;;2.20;;
66143;SDS011;52947;50.842;6.084;2023-04-15T04:34:49;6.70;;;2.53;;
66143;SDS011;52947;50.842;6.084;2023-04-15T04:37:17;4.68;;;2.50;;
66143;SDS011;52947;50.842;6.084;2023-04-15T04:39:45;5.93;;;3.03;;
66143;SDS011;52947;50.842;6.084;2023-04-15T04:42:15;5.72;;;2.10;;
66143;SDS011;52947;50.842;6.084;2023-04-15T04:47:11;4.93;;;2.03;;
66143;SDS011;52947;50.842;6.084;2023-04-15T04:49:39;6.40;;;2.23;;
66143;SDS011;52947;50.842;6.084;2023-04-15T04:52:07;6.53;;;2.47;;
66143;SDS011;52947;50.842;6.084;2023-04-15T04:54:35;6.43;;;2.22;;
66143;SDS011;52947;50.842;6.084;2023-04-15T04:57:03;7.15;;;2.53;;
66143;SDS011;52947;50.842;6.084;2023-04-15T04:59:34;5.07;;;2.42;;
66143;SDS011;52947;50.842;6.084;2023-04-15T05:02:03;5.20;;;2.42;;
66143;SDS011;52947;50.842;6.084;2023-04-15T05:04:31;7.63;;;2.20;;
66143;SDS011;52947;50.842;6.084;2023-04-15T05:07:00;7.13;;;2.70;;
66143;SDS011;52947;50.842;6.084;2023-04-15T05:09:28;6.57;;;2.45;;
66143;SDS011;52947;50.842;6.084;2023-04-15T05:11:57;7.40;;;2.92;;
66143;SDS011;52947;50.842;6.084;2023-04-15T05:14:26;4.68;;;2.47;;
66143;SDS011;52947;50.842;6.084;2023-04-15T05:16:56;7.72;;;2.80;;
66143;SDS011;52947;50.842;6.084;2023-04-15T05:19:24;7.40;;;2.55;;
66143;SDS011;52947;50.842;6.084;2023-04-15T05:21:52;12.18;;;2.85;;
66143;SDS011;52947;50.842;6.084;2023-04-15T05:24:20;6.32;;;2.80;;
66143;SDS011;52947;50.842;6.084;2023-04-15T05:26:48;5.25;;;2.78;;
66143;SDS011;52947;50.842;6.084;2023-04-15T05:29:19;8.52;;;3.42;;
66143;SDS011;52947;50.842;6.084;2023-04-15T05:31:47;8.52;;;3.33;;
66143;SDS011;52947;50.842;6.084;2023-04-15T05:34:16;8.57;;;3.75;;
66143;SDS011;52947;50.842;6.084;2023-04-15T05:36:44;7.43;;;3.33;;
66143;SDS011;52947;50.842;6.084;2023-04-15T05:39:13;4.07;;;2.40;;
66143;SDS011;52947;50.842;6.084;2023-04-15T05:41:41;5.75;;;2.35;;
66143;SDS011;52947;50.842;6.084;2023-04-15T05:44:09;9.00;;;2.50;;
66143;SDS011;52947;50.842;6.084;2023-04-15T05:46:37;7.40;;;2.92;;
66143;SDS011;52947;50.842;6.084;2023-04-15T05:49:05;10.10;;;2.33;;
66143;SDS011;52947;50.842;6.084;2023-04-15T05:51:35;6.70;;;2.30;;
66143;SDS011;52947;50.842;6.084;2023-04-15T05:54:03;6.97;;;2.78;;
66143;SDS011;52947;50.842;6.084;2023-04-15T05:56:32;6.35;;;2.35;;
66143;SDS011;52947;50.842;6.084;2023-04-15T05:59:00;9.48;;;2.53;;
66143;SDS011;52947;50.842;6.084;2023-04-15T06:01:29;8.70;;;2.95;;
66143;SDS011;52947;50.842;6.084;2023-04-15T06:03:57;9.73;;;3.35;;
66143;SDS011;52947;50.842;6.084;2023-04-15T06:06:25;7.03;;;2.85;;
66143;SDS011;52947;50.842;6.084;2023-04-15T06:08:55;9.57;;;3.00;;
66143;SDS011;52947;50.842;6.084;2023-04-15T06:11:23;11.88;;;3.28;;
66143;SDS011;52947;50.842;6.084;2023-04-15T06:13:52;8.13;;;2.90;;
66143;SDS011;52947;50.842;6.084;2023-04-15T06:16:20;6.20;;;2.73;;
66143;SDS011;52947;50.842;6.084;2023-04-15T06:18:49;7.10;;;3.15;;
66143;SDS011;52947;50.842;6.084;2023-04-15T06:21:17;9.85;;;2.78;;
66143;SDS011;52947;50.842;6.084;2023-04-15T06:23:46;9.95;;;3.15;;
66143;SDS011;52947;50.842;6.084;2023-04-15T06:26:15;8.25;;;3.35;;
66143;SDS011;52947;50.842;6.084;2023-04-15T06:28:44;6.72;;;2.78;;
66143;SDS011;52947;50.842;6.084;2023-04-15T06:31:12;7.65;;;2.70;;
66143;SDS011;52947;50.842;6.084;2023-04-15T06:33:40;8.98;;;3.40;;
66143;SDS011;52947;50.842;6.084;2023-04-15T06:36:08;8.30;;;2.80;;
66143;SDS011;52947;50.842;6.084;2023-04-15T06:38:36;13.15;;;2.90;;
66143;SDS011;52947;50.842;6.084;2023-04-15T06:41:04;6.85;;;3.03;;
66143;SDS011;52947;50.842;6.084;2023-04-15T06:43:34;9.48;;;2.92;;
66143;SDS011;52947;50.842;6.084;2023-04-15T06:46:04;8.13;;;3.10;;
66143;SDS011;52947;50.842;6.084;2023-04-15T06:48:34;5.25;;;2.75;;
66143;SDS011;52947;50.842;6.084;2023-04-15T06:51:02;8.10;;;3.08;;
66143;SDS011;52947;50.842;6.084;2023-04-15T06:53:31;7.43;;;3.40;;
66143;SDS011;52947;50.842;6.084;2023-04-15T06:56:01;6.50;;;3.10;;
66143;SDS011;52947;50.842;6.084;2023-04-15T06:58:29;7.72;;;3.08;;
66143;SDS011;52947;50.842;6.084;2023-04-15T07:00:59;11.03;;;3.67;;
66143;SDS011;52947;50.842;6.084;2023-04-15T07:03:27;7.82;;;3.22;;
66143;SDS011;52947;50.842;6.084;2023-04-15T07:05:58;7.20;;;3.35;;
66143;SDS011;52947;50.842;6.084;2023-04-15T07:08:27;8.05;;;2.92;;
66143;SDS011;52947;50.842;6.084;2023-04-15T07:10:55;11.07;;;3.80;;
66143;SDS011;52947;50.842;6.084;2023-04-15T07:13:23;10.85;;;3.40;;
66143;SDS011;52947;50.842;6.084;2023-04-15T07:15:51;8.70;;;3.60;;
66143;SDS011;52947;50.842;6.084;2023-04-15T07:18:20;9.68;;;3.35;;
66143;SDS011;52947;50.842;6.084;2023-04-15T07:20:49;13.60;;;3.63;;
66143;SDS011;52947;50.842;6.084;2023-04-15T07:23:17;14.20;;;3.50;;
66143;SDS011;52947;50.842;6.084;2023-04-15T07:25:46;7.07;;;3.40;;
66143;SDS011;52947;50.842;6.084;2023-04-15T07:28:15;10.55;;;3.92;;
66143;SDS011;52947;50.842;6.084;2023-04-15T07:30:43;10.85;;;3.65;;
66143;SDS011;52947;50.842;6.084;2023-04-15T07:33:12;5.38;;;2.72;;
66143;SDS011;52947;50.842;6.084;2023-04-15T07:35:41;7.83;;;3.37;;
66143;SDS011;52947;50.842;6.084;2023-04-15T07:38:10;12.10;;;3.58;;
66143;SDS011;52947;50.842;6.084;2023-04-15T07:40:39;11.52;;;4.28;;
66143;SDS011;52947;50.842;6.084;2023-04-15T07:43:07;8.07;;;3.88;;
66143;SDS011;52947;50.842;6.084;2023-04-15T07:45:36;7.95;;;3.75;;
66143;SDS011;52947;50.842;6.084;2023-04-15T07:48:04;9.80;;;3.70;;
66143;SDS011;52947;50.842;6.084;2023-04-15T07:50:33;14.77;;;3.88;;
66143;SDS011;52947;50.842;6.084;2023-04-15T07:53:03;9.15;;;3.38;;
66143;SDS011;52947;50.842;6.084;2023-04-15T07:55:32;5.97;;;4.00;;
66143;SDS011;52947;50.842;6.084;2023-04-15T07:58:00;9.55;;;3.85;;
66143;SDS011;52947;50.842;6.084;2023-04-15T08:00:29;6.67;;;3.63;;
66143;SDS011;52947;50.842;6.084;2023-04-15T08:02:57;8.95;;;3.92;;
66143;SDS011;52947;50.842;6.084;2023-04-15T08:05:26;12.50;;;4.00;;
66143;SDS011;52947;50.842;6.084;2023-04-15T08:07:54;9.63;;;4.10;;
66143;SDS011;52947;50.842;6.084;2023-04-15T08:10:24;8.98;;;4.47;;
66143;SDS011;52947;50.842;6.084;2023-04-15T08:12:53;8.43;;;4.75;;
66143;SDS011;52947;50.842;6.084;2023-04-15T08:17:50;11.63;;;5.00;;
66143;SDS011;52947;50.842;6.084;2023-04-15T08:20:18;12.20;;;4.72;;
66143;SDS011;52947;50.842;6.084;2023-04-15T08:22:47;12.25;;;5.30;;
66143;SDS011;52947;50.842;6.084;2023-04-15T08:25:17;9.40;;;4.78;;
66143;SDS011;52947;50.842;6.084;2023-04-15T08:27:48;9.15;;;4.97;;
66143;SDS011;52947;50.842;6.084;2023-04-15T08:30:17;9.50;;;4.78;;
66143;SDS011;52947;50.842;6.084;2023-04-15T08:32:46;9.83;;;5.67;;
66143;SDS011;52947;50.842;6.084;2023-04-15T08:35:14;12.50;;;5.00;;
66143;SDS011;52947;50.842;6.084;2023-04-15T08:37:42;12.13;;;5.93;;
66143;SDS011;52947;50.842;6.084;2023-04-15T08:40:11;9.55;;;5.55;;
66143;SDS011;52947;50.842;6.084;2023-04-15T08:42:40;9.77;;;5.53;;
66143;SDS011;52947;50.842;6.084;2023-04-15T08:45:12;9.32;;;5.50;;
66143;SDS011;52947;50.842;6.084;2023-04-15T08:47:40;9.15;;;5.38;;
66143;SDS011;52947;50.842;6.084;2023-04-15T08:50:10;11.13;;;6.28;;
66143;SDS011;52947;50.842;6.084;2023-04-15T08:52:39;9.35;;;5.97;;
66143;SDS011;52947;50.842;6.084;2023-04-15T08:55:08;8.40;;;5.30;;
66143;SDS011;52947;50.842;6.084;2023-04-15T08:57:37;6.97;;;5.55;;
66143;SDS011;52947;50.842;6.084;2023-04-15T09:00:06;8.93;;;5.70;;
66143;SDS011;52947;50.842;6.084;2023-04-15T09:02:37;7.95;;;5.28;;
66143;SDS011;52947;50.842;6.084;2023-04-15T09:05:06;12.93;;;5.30;;
66143;SDS011;52947;50.842;6.084;2023-04-15T09:10:03;9.33;;;5.30;;
66143;SDS011;52947;50.842;6.084;2023-04-15T09:12:33;8.35;;;5.80;;
66143;SDS011;52947;50.842;6.084;2023-04-15T09:15:02;8.23;;;4.97;;
66143;SDS011;52947;50.842;6.084;2023-04-15T09:17:31;7.60;;;4.88;;
66143;SDS011;52947;50.842;6.084;2023-04-15T09:20:08;9.77;;;5.05;;
66143;SDS011;52947;50.842;6.084;2023-04-15T09:22:38;10.38;;;4.60;;
66143;SDS011;52947;50.842;6.084;2023-04-15T09:27:51;7.43;;;4.57;;
66143;SDS011;52947;50.842;6.084;2023-04-15T09:30:20;7.63;;;4.32;;
66143;SDS011;52947;50.842;6.084;2023-04-15T09:32:49;7.18;;;4.43;;
66143;SDS011;52947;50.842;6.084;2023-04-15T09:35:20;7.90;;;4.10;;
66143;SDS011;52947;50.842;6.084;2023-04-15T09:37:49;6.80;;;4.18;;
66143;SDS011;52947;50.842;6.084;2023-04-15T09:40:29;6.63;;;3.83;;
66143;SDS011;52947;50.842;6.084;2023-04-15T09:42:58;7.72;;;4.00;;
66143;SDS011;52947;50.842;6.084;2023-04-15T09:45:27;8.82;;;4.65;;
66143;SDS011;52947;50.842;6.084;2023-04-15T09:47:56;7.45;;;4.30;;
66143;SDS011;52947;50.842;6.084;2023-04-15T09:50:27;7.50;;;4.47;;
66143;SDS011;52947;50.842;6.084;2023-04-15T09:52:56;8.88;;;4.45;;
66143;SDS011;52947;50.842;6.084;2023-04-15T09:55:25;9.73;;;4.93;;
66143;SDS011;52947;50.842;6.084;2023-04-15T09:57:53;9.32;;;4.68;;
66143;SDS011;52947;50.842;6.084;2023-04-15T10:02:57;9.60;;;5.25;;
66143;SDS011;52947;50.842;6.084;2023-04-15T10:05:27;7.97;;;4.80;;
66143;SDS011;52947;50.842;6.084;2023-04-15T10:07:57;9.23;;;4.30;;
66143;SDS011;52947;50.842;6.084;2023-04-15T10:10:26;7.18;;;4.55;;
66143;SDS011;52947;50.842;6.084;2023-04-15T10:12:54;7.53;;;4.20;;
66143;SDS011;52947;50.842;6.084;2023-04-15T10:15:23;8.40;;;4.88;;
66143;SDS011;52947;50.842;6.084;2023-04-15T10:17:51;5.47;;;3.80;;
66143;SDS011;52947;50.842;6.084;2023-04-15T10:20:21;7.38;;;4.88;;
66143;SDS011;52947;50.842;6.084;2023-04-15T10:22:51;9.15;;;4.10;;
66143;SDS011;52947;50.842;6.084;2023-04-15T10:25:19;8.60;;;3.80;;
66143;SDS011;52947;50.842;6.084;2023-04-15T10:30:18;7.43;;;4.15;;
66143;SDS011;52947;50.842;6.084;2023-04-15T10:32:47;8.23;;;4.57;;
66143;SDS011;52947;50.842;6.084;2023-04-15T10:35:17;6.68;;;4.30;;
66143;SDS011;52947;50.842;6.084;2023-04-15T10:37:46;6.70;;;3.95;;
66143;SDS011;52947;50.842;6.084;2023-04-15T10:40:26;4.07;;;2.77;;
66143;SDS011;52947;50.842;6.084;2023-04-15T10:42:57;4.35;;;2.95;;
66143;SDS011;52947;50.842;6.084;2023-04-15T10:45:27;4.03;;;2.83;;
66143;SDS011;52947;50.842;6.084;2023-04-15T10:48:00;5.55;;;3.13;;
66143;SDS011;52947;50.842;6.084;2023-04-15T10:50:30;5.47;;;3.50;;
66143;SDS011;52947;50.842;6.084;2023-04-15T10:53:01;6.50;;;3.08;;
66143;SDS011;52947;50.842;6.084;2023-04-15T10:55:32;3.53;;;2.72;;
66143;SDS011;52947;50.842;6.084;2023-04-15T10:58:02;7.07;;;2.30;;
66143;SDS011;52947;50.842;6.084;2023-04-15T11:00:31;3.83;;;2.42;;
66143;SDS011;52947;50.842;6.084;2023-04-15T11:03:04;3.70;;;2.50;;
66143;SDS011;52947;50.842;6.084;2023-04-15T11:14:32;4.22;;;3.03;;
66143;SDS011;52947;50.842;6.084;2023-04-15T11:17:02;5.32;;;3.25;;
66143;SDS011;52947;50.842;6.084;2023-04-15T11:19:34;3.70;;;2.65;;
66143;SDS011;52947;50.842;6.084;2023-04-15T11:22:07;5.25;;;2.03;;
66143;SDS011;52947;50.842;6.084;2023-04-15T11:24:36;3.33;;;2.20;;
66143;SDS011;52947;50.842;6.084;2023-04-15T11:27:19;3.13;;;2.10;;
66143;SDS011;52947;50.842;6.084;2023-04-15T11:29:50;4.70;;;2.10;;
66143;SDS011;52947;50.842;6.084;2023-04-15T11:32:18;5.60;;;2.55;;
66143;SDS011;52947;50.842;6.084;2023-04-15T11:34:48;4.55;;;1.92;;
66143;SDS011;52947;50.842;6.084;2023-04-15T11:37:26;5.03;;;2.20;;
66143;SDS011;52947;50.842;6.084;2023-04-15T11:39:55;3.95;;;2.42;;
66143;SDS011;52947;50.842;6.084;2023-04-15T11:42:24;2.67;;;2.17;;
66143;SDS011;52947;50.842;6.084;2023-04-15T11:45:09;3.83;;;2.45;;
66143;SDS011;52947;50.842;6.084;2023-04-15T11:47:39;3.13;;;2.22;;
66143;SDS011;52947;50.842;6.084;2023-04-15T11:52:54;4.00;;;2.40;;
66143;SDS011;52947;50.842;6.084;2023-04-15T11:55:23;6.80;;;3.20;;
66143;SDS011;52947;50.842;6.084;2023-04-15T11:58:04;4.57;;;2.70;;
66143;SDS011;52947;50.842;6.084;2023-04-15T12:00:36;7.47;;;3.60;;
66143;SDS011;52947;50.842;6.084;2023-04-15T12:03:11;8.80;;;4.68;;
66143;SDS011;52947;50.842;6.084;2023-04-15T12:08:48;5.15;;;3.20;;
66143;SDS011;52947;50.842;6.084;2023-04-15T12:11:30;5.63;;;3.10;;
66143;SDS011;52947;50.842;6.084;2023-04-15T12:14:05;6.32;;;3.60;;
66143;SDS011;52947;50.842;6.084;2023-04-15T12:16:40;6.38;;;3.67;;
66143;SDS011;52947;50.842;6.084;2023-04-15T12:19:15;5.63;;;3.13;;
66143;SDS011;52947;50.842;6.084;2023-04-15T12:21:46;3.80;;;3.00;;
66143;SDS011;52947;50.842;6.084;2023-04-15T12:24:18;10.15;;;3.70;;
66143;SDS011;52947;50.842;6.084;2023-04-15T12:26:48;4.90;;;3.15;;
66143;SDS011;52947;50.842;6.084;2023-04-15T12:29:18;4.20;;;3.05;;
66143;SDS011;52947;50.842;6.084;2023-04-15T12:31:52;5.22;;;2.78;;
66143;SDS011;52947;50.842;6.084;2023-04-15T12:34:26;5.38;;;2.80;;
66143;SDS011;52947;50.842;6.084;2023-04-15T12:36:56;4.13;;;2.90;;
66143;SDS011;52947;50.842;6.084;2023-04-15T12:39:26;3.53;;;2.30;;
66143;SDS011;52947;50.842;6.084;2023-04-15T12:41:56;4.13;;;2.70;;
66143;SDS011;52947;50.842;6.084;2023-04-15T12:44:26;3.45;;;2.90;;
66143;SDS011;52947;50.842;6.084;2023-04-15T12:46:56;2.83;;;2.45;;
66143;SDS011;52947;50.842;6.084;2023-04-15T12:49:25;4.13;;;2.80;;
66143;SDS011;52947;50.842;6.084;2023-04-15T12:54:24;4.82;;;2.97;;
66143;SDS011;52947;50.842;6.084;2023-04-15T12:56:53;4.28;;;3.00;;
66143;SDS011;52947;50.842;6.084;2023-04-15T12:59:22;4.38;;;3.00;;
66143;SDS011;52947;50.842;6.084;2023-04-15T13:01:51;4.45;;;3.13;;
66143;SDS011;52947;50.842;6.084;2023-04-15T13:04:22;4.30;;;3.20;;
66143;SDS011;52947;50.842;6.084;2023-04-15T13:06:51;4.32;;;3.00;;
66143;SDS011;52947;50.842;6.084;2023-04-15T13:09:20;6.10;;;2.80;;
66143;SDS011;52947;50.842;6.084;2023-04-15T13:11:48;4.38;;;2.75;;
66143;SDS011;52947;50.842;6.084;2023-04-15T13:14:18;4.65;;;2.83;;
66143;SDS011;52947;50.842;6.084;2023-04-15T13:16:46;6.35;;;2.63;;
66143;SDS011;52947;50.842;6.084;2023-04-15T13:19:15;4.83;;;2.30;;
66143;SDS011;52947;50.842;6.084;2023-04-15T13:21:45;4.05;;;2.97;;
66143;SDS011;52947;50.842;6.084;2023-04-15T13:24:13;4.32;;;2.83;;
66143;SDS011;52947;50.842;6.084;2023-04-15T13:26:42;3.80;;;2.90;;
66143;SDS011;52947;50.842;6.084;2023-04-15T13:29:10;3.92;;;2.90;;
66143;SDS011;52947;50.842;6.084;2023-04-15T13:34:07;4.70;;;3.00;;
66143;SDS011;52947;50.842;6.084;2023-04-15T13:36:35;4.38;;;2.80;;
66143;SDS011;52947;50.842;6.084;2023-04-15T13:39:05;5.13;;;2.87;;
66143;SDS011;52947;50.842;6.084;2023-04-15T13:41:33;3.78;;;2.83;;
66143;SDS011;52947;50.842;6.084;2023-04-15T13:44:02;3.85;;;2.75;;
66143;SDS011;52947;50.842;6.084;2023-04-15T13:46:32;3.63;;;2.92;;
66143;SDS011;52947;50.842;6.084;2023-04-15T13:49:00;3.57;;;2.10;;
66143;SDS011;52947;50.842;6.084;2023-04-15T13:51:28;4.78;;;2.22;;
66143;SDS011;52947;50.842;6.084;2023-04-15T13:53:57;7.53;;;4.85;;
66143;SDS011;52947;50.842;6.084;2023-04-15T13:56:26;3.97;;;2.45;;
66143;SDS011;52947;50.842;6.084;2023-04-15T13:58:58;5.93;;;2.80;;
66143;SDS011;52947;50.842;6.084;2023-04-15T14:03:55;6.38;;;2.80;;
66143;SDS011;52947;50.842;6.084;2023-04-15T14:06:24;7.18;;;2.70;;
66143;SDS011;52947;50.842;6.084;2023-04-15T14:08:53;5.57;;;2.70;;
66143;SDS011;52947;50.842;6.084;2023-04-15T14:11:21;5.35;;;2.35;;
66143;SDS011;52947;50.842;6.084;2023-04-15T14:13:51;3.75;;;2.63;;
66143;SDS011;52947;50.842;6.084;2023-04-15T14:16:19;3.28;;;2.30;;
66143;SDS011;52947;50.842;6.084;2023-04-15T14:18:48;3.15;;;2.50;;
66143;SDS011;52947;50.842;6.084;2023-04-15T14:21:16;4.22;;;2.55;;
66143;SDS011;52947;50.842;6.084;2023-04-15T14:23:44;4.93;;;2.58;;
66143;SDS011;52947;50.842;6.084;2023-04-15T14:26:13;2.92;;;2.30;;
66143;SDS011;52947;50.842;6.084;2023-04-15T14:28:41;3.60;;;2.30;;
66143;SDS011;52947;50.842;6.084;2023-04-15T14:31:11;4.45;;;2.42;;
66143;SDS011;52947;50.842;6.084;2023-04-15T14:33:41;2.60;;;2.08;;
66143;SDS011;52947;50.842;6.084;2023-04-15T14:36:09;3.97;;;2.38;;
66143;SDS011;52947;50.842;6.084;2023-04-15T14:38:37;4.63;;;2.45;;
66143;SDS011;52947;50.842;6.084;2023-04-15T14:41:06;3.55;;;2.10;;
66143;SDS011;52947;50.842;6.084;2023-04-15T14:43:36;3.17;;;1.92;;
66143;SDS011;52947;50.842;6.084;2023-04-15T14:46:05;4.95;;;2.38;;
66143;SDS011;52947;50.842;6.084;2023-04-15T14:48:35;3.70;;;1.98;;
66143;SDS011;52947;50.842;6.084;2023-04-15T14:51:05;3.95;;;1.75;;
66143;SDS011;52947;50.842;6.084;2023-04-15T14:53:34;3.88;;;2.20;;
66143;SDS011;52947;50.842;6.084;2023-04-15T14:56:02;7.10;;;2.50;;
66143;SDS011;52947;50.842;6.084;2023-04-15T14:58:31;3.92;;;3.13;;
66143;SDS011;52947;50.842;6.084;2023-04-15T15:01:02;2.80;;;1.88;;
66143;SDS011;52947;50.842;6.084;2023-04-15T15:03:31;3.58;;;2.28;;
66143;SDS011;52947;50.842;6.084;2023-04-15T15:06:01;2.97;;;2.17;;
66143;SDS011;52947;50.842;6.084;2023-04-15T15:08:29;5.53;;;2.40;;
66143;SDS011;52947;50.842;6.084;2023-04-15T15:10:58;3.10;;;2.20;;
66143;SDS011;52947;50.842;6.084;2023-04-15T15:13:26;4.78;;;2.42;;
66143;SDS011;52947;50.842;6.084;2023-04-15T15:15:54;3.85;;;2.45;;
66143;SDS011;52947;50.842;6.084;2023-04-15T15:18:24;10.90;;;3.58;;
66143;SDS011;52947;50.842;6.084;2023-04-15T15:20:52;5.03;;;2.70;;
66143;SDS011;52947;50.842;6.084;2023-04-15T15:23:21;3.78;;;2.15;;
66143;SDS011;52947;50.842;6.084;2023-04-15T15:25:49;5.15;;;2.13;;
66143;SDS011;52947;50.842;6.084;2023-04-15T15:28:17;2.95;;;2.50;;
66143;SDS011;52947;50.842;6.084;2023-04-15T15:33:15;3.97;;;2.30;;
66143;SDS011;52947;50.842;6.084;2023-04-15T15:35:43;3.87;;;2.10;;
66143;SDS011;52947;50.842;6.084;2023-04-15T15:38:13;3.10;;;2.00;;
66143;SDS011;52947;50.842;6.084;2023-04-15T15:40:43;3.03;;;1.90;;
66143;SDS011;52947;50.842;6.084;2023-04-15T15:43:12;3.42;;;2.00;;
66143;SDS011;52947;50.842;6.084;2023-04-15T15:45:40;7.45;;;2.40;;
66143;SDS011;52947;50.842;6.084;2023-04-15T15:48:08;4.53;;;2.15;;